Time;durP1;ratioP1;P1;durP2;ratioP2;P2;SDS_P1;SDS_P2;PMS_P1;PMS_P2;Temp;Humidity;BMP_temperature;BMP_pressure;BME280_temperature;BME280_humidity;BME280_pressure;Samples;Min_cycle;Max_cycle;Signal;HPM_P1;HPM_P2
2022/01/21 00:00:16;;;;;;;2.63;0.87;;;;;;;1.91;59.25;95416.59;5089790;28;20944;-55
2022/01/21 00:02:47;;;;;;;0.33;0.30;;;;;;;2.38;57.47;95420.41;5089819;28;20483;-55
2022/01/21 00:05:16;;;;;;;0.33;0.33;;;;;;;1.92;59.36;95386.03;5090064;28;20476;-55
2022/01/21 00:07:44;;;;;;;0.40;0.40;;;;;;;2.47;57.64;95431.38;5091189;28;20477;-55
2022/01/21 00:10:13;;;;;;;1.30;1.30;;;;;;;1.81;59.70;95394.56;5090949;28;20481;-54
2022/01/21 00:12:42;;;;;;;2.10;1.77;;;;;;;1.71;61.63;95318.47;5090343;28;20429;-54
2022/01/21 00:15:11;;;;;;;0.40;0.40;;;;;;;2.78;57.27;95444.38;5092102;28;20489;-54
2022/01/21 00:17:40;;;;;;;0.30;0.20;;;;;;;2.81;56.14;95432.66;5092154;28;20455;-54
2022/01/21 00:31:15;;;;;;;0.43;0.43;;;;;;;2.38;53.76;95301.91;5090908;28;20432;-54
2022/01/21 00:33:44;;;;;;;0.30;0.20;;;;;;;2.00;56.37;95315.16;5091903;28;20922;-54
2022/01/21 00:36:14;;;;;;;0.60;0.60;;;;;;;2.50;56.71;95415.28;5091681;28;20944;-54
2022/01/21 00:38:43;;;;;;;0.50;0.50;;;;;;;2.05;58.32;95353.75;5091337;28;20429;-54
2022/01/21 00:41:17;;;;;;;0.93;0.60;;;;;;;2.99;56.30;95430.81;5090168;28;20432;-54
2022/01/21 00:43:45;;;;;;;0.30;0.20;;;;;;;2.16;57.12;95387.00;5091641;28;20425;-54
2022/01/21 00:46:15;;;;;;;0.90;0.90;;;;;;;3.06;55.20;95433.38;5091303;28;20482;-54
2022/01/21 00:48:43;;;;;;;0.40;0.40;;;;;;;3.33;53.77;95426.78;5091260;28;20424;-54
2022/01/21 00:51:13;;;;;;;1.07;1.07;;;;;;;3.02;54.35;95425.16;5091527;28;20903;-53
2022/01/21 00:53:42;;;;;;;0.30;0.20;;;;;;;3.22;53.72;95412.63;5091380;28;20489;-53
2022/01/21 00:56:11;;;;;;;0.30;0.20;;;;;;;2.42;53.87;95267.25;5090551;28;20429;-53
2022/01/21 00:58:39;;;;;;;0.30;0.20;;;;;;;3.25;54.19;95421.06;5089726;28;20554;-53
2022/01/21 01:01:09;;;;;;;0.30;0.30;;;;;;;2.98;56.41;95402.25;5088940;28;20902;-53
2022/01/21 01:03:38;;;;;;;16.83;0.77;;;;;;;2.68;57.08;95396.16;5090042;28;20432;-54
2022/01/21 01:06:07;;;;;;;1.50;1.37;;;;;;;3.10;55.41;95397.88;5091190;28;20479;-53
2022/01/21 01:08:37;;;;;;;0.30;0.20;;;;;;;3.56;54.27;95389.41;5091077;28;20467;-54
2022/01/21 01:11:24;;;;;;;0.33;0.33;;;;;;;3.65;53.48;95388.03;5090508;28;21013;-54
2022/01/21 01:19:58;;;;;;;0.60;0.40;;;;;;;2.43;59.56;95404.84;5032380;28;21037;-54
2022/01/21 01:22:36;;;;;;;1.27;1.27;;;;;;;2.86;62.50;95402.19;5089697;28;20482;-54
2022/01/21 01:27:53;;;;;;;1.77;1.77;;;;;;;1.97;59.11;95326.06;5092863;28;20464;-54
2022/01/21 01:30:23;;;;;;;0.30;0.20;;;;;;;2.58;59.81;95390.63;5092639;28;21012;-55
2022/01/21 01:32:55;;;;;;;0.63;0.63;;;;;;;2.55;59.52;95373.56;5094077;28;20459;-54
2022/01/21 01:35:25;;;;;;;0.70;0.70;;;;;;;2.22;62.92;95375.72;5094054;28;20468;-52
2022/01/21 01:38:16;;;;;;;0.73;0.73;;;;;;;2.65;61.41;95376.47;5094395;28;20447;-54
2022/01/21 01:40:50;;;;;;;0.50;0.50;;;;;;;2.96;59.42;95371.03;5094355;28;20773;-54
2022/01/21 01:51:36;;;;;;;0.40;0.40;;;;;;;0.33;61.53;94993.47;5093464;28;20779;-53
2022/01/21 01:54:11;;;;;;;2.77;2.70;;;;;;;2.82;60.51;95371.44;5094657;28;20493;-53
2022/01/21 01:56:44;;;;;;;0.90;0.50;;;;;;;1.92;59.64;95182.97;5094341;28;20440;-52
2022/01/21 01:59:13;;;;;;;0.40;0.30;;;;;;;2.90;59.36;95332.69;5094196;28;20467;-53
2022/01/21 02:01:43;;;;;;;0.90;0.90;;;;;;;2.45;62.18;95350.50;5093826;28;20854;-52
2022/01/21 02:04:11;;;;;;;2.33;1.53;;;;;;;2.68;62.10;95347.25;5093920;28;20436;-54
2022/01/21 02:06:40;;;;;;;0.30;0.20;;;;;;;3.00;59.00;95338.19;5094124;28;20822;-53
2022/01/21 02:09:08;;;;;;;0.80;0.80;;;;;;;2.69;61.43;95335.75;5093354;28;20425;-53
2022/01/21 02:11:37;;;;;;;5.90;3.33;;;;;;;2.82;61.66;95290.31;5091706;28;20971;-53
2022/01/21 02:14:11;;;;;;;0.30;0.30;;;;;;;2.77;61.88;95329.41;5093597;28;20452;-53
2022/01/21 02:17:05;;;;;;;0.80;0.80;;;;;;;2.20;65.94;95321.00;5092780;28;20424;-53
2022/01/21 02:22:22;;;;;;;0.30;0.20;;;;;;;2.35;65.98;95337.13;5093509;28;20484;-53
2022/01/21 02:24:54;;;;;;;0.30;0.20;;;;;;;1.75;66.31;95221.16;5093222;28;20421;-53
2022/01/21 02:27:23;;;;;;;0.20;0.20;;;;;;;1.89;68.27;95315.91;5091692;28;20796;-53
2022/01/21 02:29:54;;;;;;;1.07;1.07;;;;;;;0.85;74.72;95226.94;5093080;28;20486;-54
2022/01/21 02:32:24;;;;;;;2.00;1.30;;;;;;;2.19;72.47;95331.69;5093690;28;20451;-54
2022/01/21 02:34:53;;;;;;;0.30;0.30;;;;;;;1.75;76.38;95322.22;5093440;28;21017;-54
2022/01/21 02:37:23;;;;;;;0.30;0.20;;;;;;;1.85;78.26;95320.75;5093426;28;20486;-54
2022/01/21 02:39:52;;;;;;;0.40;0.40;;;;;;;1.61;72.63;95211.06;5093689;28;20428;-54
2022/01/21 02:42:21;;;;;;;0.77;0.77;;;;;;;1.10;70.61;95141.66;5091073;28;20964;-54
2022/01/21 02:44:50;;;;;;;3.30;2.97;;;;;;;2.04;67.04;95290.22;5091607;28;20478;-54
2022/01/21 02:47:19;;;;;;;0.57;0.57;;;;;;;0.48;74.88;95167.81;5092828;28;20440;-54
2022/01/21 02:49:48;;;;;;;0.20;0.20;;;;;;;-0.05;69.71;94962.28;5093245;28;20439;-54
2022/01/21 02:52:18;;;;;;;0.30;0.30;;;;;;;1.92;67.98;95248.31;5092996;28;20495;-54
2022/01/21 02:54:48;;;;;;;0.40;0.40;;;;;;;-2.01;65.66;94674.91;5093617;28;20441;-54
2022/01/21 02:57:18;;;;;;;2.87;1.37;;;;;;;0.55;68.55;95032.97;5092657;28;20436;-53
2022/01/21 02:59:49;;;;;;;0.50;0.50;;;;;;;1.63;67.62;95195.97;5092974;28;20981;-54
2022/01/21 03:02:17;;;;;;;0.30;0.20;;;;;;;2.43;66.60;95268.84;5090735;28;20567;-54
2022/01/21 03:04:55;;;;;;;0.40;0.40;;;;;;;2.49;64.21;95223.50;5092073;28;20439;-54
2022/01/21 03:07:24;;;;;;;0.77;0.77;;;;;;;3.28;59.64;95255.59;5092559;28;20479;-54
2022/01/21 03:09:55;;;;;;;0.20;0.20;;;;;;;3.06;60.82;95263.19;5093148;28;20494;-54
2022/01/21 03:12:24;;;;;;;0.20;0.20;;;;;;;3.31;61.09;95255.97;5092574;28;21017;-54
2022/01/21 03:14:52;;;;;;;0.30;0.20;;;;;;;2.75;63.00;95245.91;5092769;28;20424;-55
2022/01/21 03:17:21;;;;;;;0.30;0.30;;;;;;;2.77;60.90;95216.88;5090750;28;21025;-55
2022/01/21 03:19:49;;;;;;;0.30;0.20;;;;;;;2.91;62.20;95270.66;5090586;28;20462;-55
2022/01/21 03:22:18;;;;;;;0.50;0.50;;;;;;;3.15;61.22;95273.13;5091482;28;20436;-54
2022/01/21 03:24:47;;;;;;;0.40;0.40;;;;;;;2.83;63.79;95255.28;5092483;28;20421;-54
2022/01/21 03:27:17;;;;;;;0.40;0.40;;;;;;;2.48;67.67;95273.41;5092509;28;20912;-54
2022/01/21 03:29:47;;;;;;;1.43;1.23;;;;;;;1.53;75.94;95272.19;5091698;28;20493;-54
2022/01/21 03:32:15;;;;;;;0.87;0.87;;;;;;;1.33;77.84;95234.22;5091161;28;20963;-54
2022/01/21 03:34:45;;;;;;;0.70;0.70;;;;;;;2.03;74.20;95267.69;5091559;28;20814;-54
2022/01/21 03:37:14;;;;;;;1.00;0.37;;;;;;;0.51;73.55;95078.72;5092181;28;20436;-54
2022/01/21 03:39:43;;;;;;;0.33;0.33;;;;;;;1.90;75.40;95252.16;5091532;28;21058;-54
2022/01/21 03:42:11;;;;;;;0.20;0.20;;;;;;;1.99;72.59;95245.63;5092628;28;20478;-54
2022/01/21 03:44:42;;;;;;;0.30;0.20;;;;;;;2.43;71.11;95247.13;5091977;28;20436;-54
2022/01/21 03:47:11;;;;;;;0.67;0.67;;;;;;;2.14;68.65;95214.69;5090304;28;20503;-54
2022/01/21 03:49:51;;;;;;;0.43;0.43;;;;;;;1.42;69.71;95113.59;5091022;28;20454;-54
2022/01/21 03:52:20;;;;;;;0.30;0.30;;;;;;;1.71;68.35;95112.88;5090305;28;20456;-54
2022/01/21 03:54:50;;;;;;;0.30;0.30;;;;;;;1.38;69.08;95068.06;5091665;28;20424;-54
2022/01/21 03:57:18;;;;;;;0.80;0.80;;;;;;;-0.45;76.47;94901.09;5092129;28;20459;-54
2022/01/21 03:59:48;;;;;;;0.30;0.30;;;;;;;1.45;79.33;95201.16;5091804;28;20494;-54
2022/01/21 04:02:17;;;;;;;0.27;0.20;;;;;;;1.67;81.56;95218.03;5091211;28;20537;-54
2022/01/21 04:04:46;;;;;;;1.70;1.17;;;;;;;0.39;76.80;94976.16;5092075;28;20424;-54
2022/01/21 04:07:15;;;;;;;1.03;1.03;;;;;;;2.27;75.52;95217.16;5091609;28;20475;-54
2022/01/21 04:09:43;;;;;;;0.40;0.40;;;;;;;2.28;73.26;95216.13;5090064;28;20471;-54
2022/01/21 04:12:12;;;;;;;2.40;2.30;;;;;;;1.45;76.71;95156.75;5089899;28;20416;-54
2022/01/21 04:14:42;;;;;;;0.30;0.20;;;;;;;1.96;73.94;95185.16;5090820;28;20465;-54
2022/01/21 04:17:12;;;;;;;0.77;0.77;;;;;;;1.65;73.08;95136.47;5090158;28;20999;-54
2022/01/21 04:19:40;;;;;;;2.63;1.10;;;;;;;0.72;77.27;95046.25;5091191;28;20486;-53
2022/01/21 04:22:10;;;;;;;0.33;0.33;;;;;;;2.06;76.36;95220.22;5090918;28;20424;-54
2022/01/21 04:24:39;;;;;;;1.43;1.43;;;;;;;1.90;76.23;95181.59;5091483;28;20479;-54
2022/01/21 04:27:08;;;;;;;0.73;0.67;;;;;;;1.83;75.94;95170.41;5091906;28;20503;-54
2022/01/21 04:29:36;;;;;;;1.67;1.67;;;;;;;1.84;77.53;95206.81;5092081;28;20440;-54
2022/01/21 04:32:06;;;;;;;0.53;0.53;;;;;;;2.08;78.75;95210.34;5091466;28;20460;-54
2022/01/21 04:34:37;;;;;;;0.20;0.20;;;;;;;1.20;81.60;95135.94;5089644;28;20515;-54
2022/01/21 04:37:09;;;;;;;0.90;0.90;;;;;;;1.03;86.81;95150.53;5089473;28;20795;-53
2022/01/21 04:39:43;;;;;;;0.20;0.20;;;;;;;1.29;86.01;95174.59;5091261;28;20450;-54
2022/01/21 04:47:54;;;;;;;0.30;0.30;;;;;;;0.95;83.87;95070.72;5033021;28;20486;-53
2022/01/21 04:50:26;;;;;;;0.87;0.87;;;;;;;2.20;79.86;95202.56;5091503;28;20439;-53
2022/01/21 04:52:55;;;;;;;1.47;1.47;;;;;;;2.08;78.09;95165.91;5094650;28;20432;-53
2022/01/21 04:55:29;;;;;;;0.70;0.70;;;;;;;1.75;83.86;95165.47;5095719;28;20869;-54
2022/01/21 04:57:59;;;;;;;1.37;0.60;;;;;;;1.87;85.61;95190.66;5095007;28;20435;-53
2022/01/21 05:00:28;;;;;;;0.50;0.50;;;;;;;0.55;86.23;95023.38;5094535;28;20457;-54
2022/01/21 05:02:57;;;;;;;0.63;0.63;;;;;;;-0.28;96.26;95058.41;5093635;28;20511;-54
2022/01/21 05:05:27;;;;;;;0.30;0.20;;;;;;;1.61;94.88;95226.72;5093688;28;20428;-54
2022/01/21 05:07:59;;;;;;;0.50;0.50;;;;;;;0.31;89.68;95013.72;5093988;28;20542;-54
2022/01/21 05:10:35;;;;;;;0.30;0.30;;;;;;;0.44;97.67;95150.97;5095421;28;20448;-53
2022/01/21 05:13:06;;;;;;;0.60;0.60;;;;;;;0.89;100.00;95188.97;5095127;28;20490;-54
2022/01/21 05:15:58;;;;;;;0.50;0.50;;;;;;;0.13;94.70;94987.59;5094705;28;20468;-54
2022/01/21 05:18:27;;;;;;;1.53;1.37;;;;;;;1.69;93.21;95223.84;5092933;28;20514;-54
2022/01/21 05:20:58;;;;;;;0.77;0.77;;;;;;;1.98;90.80;95223.13;5094625;28;20429;-53
2022/01/21 05:23:27;;;;;;;0.47;0.47;;;;;;;2.07;87.88;95223.63;5094624;28;20924;-53
2022/01/21 05:25:56;;;;;;;1.27;0.53;;;;;;;0.42;88.95;95053.94;5094814;28;20905;-54
2022/01/21 05:28:25;;;;;;;0.30;0.20;;;;;;;1.69;89.03;95236.91;5094409;28;21027;-54
2022/01/21 05:30:55;;;;;;;1.40;1.30;;;;;;;-2.39;84.32;94573.66;5094656;28;20425;-54
2022/01/21 05:33:26;;;;;;;0.30;0.20;;;;;;;1.47;87.66;95246.94;5094585;28;20428;-54
2022/01/21 05:35:54;;;;;;;0.30;0.23;;;;;;;1.62;86.64;95231.72;5094401;28;20466;-54
2022/01/21 05:38:29;;;;;;;1.77;1.63;;;;;;;1.10;86.78;95154.69;5094615;28;20841;-54
2022/01/21 05:40:59;;;;;;;0.70;0.67;;;;;;;1.73;84.60;95240.66;5094539;28;20439;-54
2022/01/21 05:43:28;;;;;;;0.20;0.20;;;;;;;0.82;87.71;95154.31;5094485;28;20475;-54
2022/01/21 05:48:43;;;;;;;0.57;0.57;;;;;;;0.28;82.92;95002.94;5093888;28;20479;-54
2022/01/21 05:51:12;;;;;;;3.40;0.60;;;;;;;1.95;81.93;95239.22;5094267;28;20497;-54
2022/01/21 05:53:42;;;;;;;0.73;0.73;;;;;;;0.46;81.41;95052.50;5093946;28;20546;-53
2022/01/21 05:56:13;;;;;;;0.83;0.83;;;;;;;1.83;79.56;95205.19;5094225;28;20576;-53
2022/01/21 05:58:42;;;;;;;0.97;0.97;;;;;;;1.87;78.99;95227.25;5093369;28;20428;-53
2022/01/21 06:01:10;;;;;;;1.10;1.10;;;;;;;1.98;80.40;95233.56;5093187;28;20551;-53
2022/01/21 06:03:41;;;;;;;0.60;0.60;;;;;;;0.95;77.13;95062.09;5093976;28;20436;-53
2022/01/21 06:06:12;;;;;;;0.20;0.20;;;;;;;2.11;78.76;95217.75;5093809;28;20432;-53
2022/01/21 06:08:42;;;;;;;0.30;0.30;;;;;;;1.96;82.37;95222.53;5093787;28;20502;-53
2022/01/21 06:11:11;;;;;;;0.80;0.80;;;;;;;2.45;73.85;95180.50;5093724;28;20432;-54
2022/01/21 06:13:40;;;;;;;0.63;0.57;;;;;;;2.62;72.38;95214.69;5093801;28;20966;-53
2022/01/21 06:16:08;;;;;;;1.70;1.70;;;;;;;2.35;76.89;95202.97;5093550;28;20486;-53
2022/01/21 06:18:37;;;;;;;0.87;0.87;;;;;;;2.39;75.29;95204.94;5093460;28;20893;-53
2022/01/21 06:21:08;;;;;;;2.83;2.73;;;;;;;2.53;75.21;95226.47;5092900;28;20501;-53
2022/01/21 06:23:37;;;;;;;0.87;0.87;;;;;;;2.64;74.87;95303.41;5093303;28;20433;-53
2022/01/21 06:26:08;;;;;;;0.70;0.70;;;;;;;2.09;78.89;95209.31;5092988;28;20476;-53
2022/01/21 06:28:37;;;;;;;0.70;0.60;;;;;;;2.16;79.83;95227.53;5092786;28;21143;-54
2022/01/21 06:31:06;;;;;;;0.80;0.80;;;;;;;1.98;81.46;95199.59;5092173;28;20497;-54
2022/01/21 06:33:34;;;;;;;1.40;1.40;;;;;;;0.80;83.69;95005.06;5093299;28;20433;-53
2022/01/21 06:36:05;;;;;;;1.23;1.23;;;;;;;2.49;78.60;95220.88;5093144;28;20472;-53
2022/01/21 06:38:35;;;;;;;2.27;2.17;;;;;;;1.55;85.17;95227.56;5092691;28;20463;-54
2022/01/21 06:41:06;;;;;;;1.03;1.03;;;;;;;1.11;91.54;95234.56;5093314;28;20828;-53
2022/01/21 06:43:36;;;;;;;2.20;2.10;;;;;;;1.24;94.25;95231.88;5092397;28;20458;-53
2022/01/21 06:46:08;;;;;;;0.60;0.60;;;;;;;1.02;91.57;95175.03;5092992;28;21036;-53
2022/01/21 06:48:37;;;;;;;1.83;1.80;;;;;;;1.95;86.49;95236.59;5093241;28;20472;-54
2022/01/21 06:51:11;;;;;;;0.23;0.20;;;;;;;1.96;85.00;95227.78;5092410;28;20463;-54
2022/01/21 06:53:39;;;;;;;0.30;0.30;;;;;;;2.20;81.21;95213.03;5092302;28;20432;-54
2022/01/21 06:56:10;;;;;;;1.80;1.80;;;;;;;0.46;80.93;95006.38;5092987;28;20904;-54
2022/01/21 06:58:41;;;;;;;1.87;1.87;;;;;;;2.16;81.59;95240.59;5092306;28;20959;-53
2022/01/21 07:01:10;;;;;;;2.93;0.63;;;;;;;2.30;81.02;95231.63;5092445;28;21051;-53
2022/01/21 07:03:40;;;;;;;2.80;2.70;;;;;;;2.32;80.11;95260.94;5092600;28;20960;-53
2022/01/21 07:06:08;;;;;;;1.17;1.17;;;;;;;2.54;78.34;95217.59;5092640;28;20425;-53
2022/01/21 07:08:38;;;;;;;0.40;0.40;;;;;;;2.54;78.27;95220.22;5092862;28;20499;-54
2022/01/21 07:11:07;;;;;;;1.13;1.13;;;;;;;1.68;81.90;95123.78;5092824;28;20784;-53
2022/01/21 07:13:36;;;;;;;0.60;0.60;;;;;;;2.66;79.58;95230.75;5091588;28;20440;-54
2022/01/21 07:16:07;;;;;;;0.50;0.50;;;;;;;2.71;77.80;95229.03;5092040;28;20460;-53
2022/01/21 07:18:38;;;;;;;0.80;0.77;;;;;;;2.29;79.02;95169.84;5092123;28;20472;-54
2022/01/21 07:21:06;;;;;;;0.40;0.40;;;;;;;2.90;76.74;95235.84;5092033;28;20432;-54
2022/01/21 07:23:38;;;;;;;2.00;1.60;;;;;;;3.46;72.41;95232.75;5091272;28;20420;-54
2022/01/21 07:26:06;;;;;;;1.30;1.30;;;;;;;2.93;75.60;95221.50;5091254;28;20520;-53
2022/01/21 07:28:35;;;;;;;2.93;2.80;;;;;;;2.95;78.11;95235.16;5091764;28;20504;-54
2022/01/21 07:31:04;;;;;;;2.60;2.50;;;;;;;2.96;75.71;95236.75;5092470;28;20436;-54
2022/01/21 07:33:38;;;;;;;2.87;2.87;;;;;;;2.83;79.80;95231.72;5092050;28;20501;-54
2022/01/21 07:36:06;;;;;;;2.93;2.07;;;;;;;3.07;75.67;95230.75;5091320;28;20471;-54
2022/01/21 07:38:38;;;;;;;2.00;1.90;;;;;;;2.33;81.66;95200.56;5092061;28;20989;-55
2022/01/21 07:41:06;;;;;;;2.00;2.00;;;;;;;2.93;80.18;95213.66;5091910;28;20448;-55
2022/01/21 07:43:43;;;;;;;8.23;3.03;;;;;;;3.46;76.47;95230.13;5092069;28;20420;-52
2022/01/21 07:46:11;;;;;;;2.60;2.50;;;;;;;2.45;77.39;95075.88;5091915;28;20967;-53
2022/01/21 07:48:42;;;;;;;1.93;1.90;;;;;;;3.64;78.27;95230.00;5091992;28;20476;-52
2022/01/21 07:51:12;;;;;;;3.20;2.93;;;;;;;3.55;76.88;95236.63;5091802;28;20456;-53
2022/01/21 07:53:42;;;;;;;3.27;3.17;;;;;;;3.64;78.14;95232.63;5091872;28;20428;-53
2022/01/21 07:56:13;;;;;;;3.50;3.40;;;;;;;-0.84;76.52;94538.00;5091606;28;20497;-53
2022/01/21 07:58:42;;;;;;;5.50;3.33;;;;;;;3.95;79.57;95241.97;5091032;28;20475;-53
2022/01/21 08:01:10;;;;;;;7.23;3.03;;;;;;;4.08;81.84;95235.66;5091318;28;20468;-53
2022/01/21 08:03:39;;;;;;;0.70;0.70;;;;;;;4.03;86.03;95204.09;5092018;28;20432;-53
2022/01/21 08:06:12;;;;;;;4.90;1.70;;;;;;;4.40;91.23;95247.38;5092096;28;20429;-54
2022/01/21 08:08:41;;;;;;;4.20;3.83;;;;;;;4.16;100.00;95248.44;5091835;28;20880;-54
2022/01/21 08:11:12;;;;;;;1.70;1.60;;;;;;;3.96;100.00;95169.34;5091529;28;20493;-54
2022/01/21 08:13:40;;;;;;;0.97;0.97;;;;;;;3.95;100.00;95215.75;5091445;28;20424;-54
2022/01/21 08:16:09;;;;;;;2.30;1.90;;;;;;;3.75;97.65;95255.41;5091556;28;20472;-54
2022/01/21 08:18:38;;;;;;;1.80;1.70;;;;;;;3.60;97.33;95267.38;5091837;28;20841;-55
2022/01/21 08:21:07;;;;;;;1.60;1.60;;;;;;;3.31;97.33;95213.25;5091565;28;20490;-55
2022/01/21 08:23:37;;;;;;;1.07;0.97;;;;;;;3.78;95.34;95259.41;5091519;28;20428;-54
2022/01/21 08:26:05;;;;;;;3.20;3.10;;;;;;;3.75;97.76;95260.66;5094881;28;20485;-55
2022/01/21 08:28:50;;;;;;;1.20;1.10;;;;;;;-1.03;95.52;94491.41;5094544;28;20484;-54
2022/01/21 08:31:20;;;;;;;3.60;1.90;;;;;;;4.29;94.23;95242.94;5095978;28;20424;-53
2022/01/21 08:33:52;;;;;;;3.60;1.83;;;;;;;4.38;94.17;95242.34;5095512;28;20500;-55
2022/01/21 08:36:25;;;;;;;1.63;1.53;;;;;;;4.40;99.16;95261.28;5095626;28;20428;-54
2022/01/21 08:39:00;;;;;;;2.23;2.13;;;;;;;4.47;99.56;95279.53;5095473;28;20489;-55
2022/01/21 08:41:29;;;;;;;2.10;1.50;;;;;;;4.47;100.00;95266.41;5095710;28;20516;-54
2022/01/21 08:44:01;;;;;;;1.23;1.20;;;;;;;4.37;100.00;95268.81;5094951;28;20420;-55
2022/01/21 08:46:45;;;;;;;2.33;2.23;;;;;;;4.45;100.00;95292.84;5095309;28;20428;-55
2022/01/21 08:49:33;;;;;;;3.80;2.37;;;;;;;4.06;100.00;95207.06;5094990;28;20490;-54
2022/01/21 08:52:03;;;;;;;7.10;2.67;;;;;;;4.40;100.00;95257.88;5095269;28;20496;-55
2022/01/21 08:54:32;;;;;;;4.33;4.10;;;;;;;4.36;100.00;95296.06;5095195;28;20437;-54
2022/01/21 08:57:01;;;;;;;14.40;2.97;;;;;;;4.04;100.00;95239.78;5095132;28;20998;-55
2022/01/21 08:59:31;;;;;;;2.87;2.67;;;;;;;3.81;100.00;95230.13;5094641;28;20419;-55
2022/01/21 09:02:00;;;;;;;4.67;3.50;;;;;;;3.90;100.00;95233.22;5094750;28;20474;-54
2022/01/21 09:04:28;;;;;;;0.87;0.87;;;;;;;4.21;100.00;95264.28;5095520;28;20460;-55
2022/01/21 09:06:57;;;;;;;2.20;2.10;;;;;;;4.89;100.00;95290.56;5095022;28;20432;-54
2022/01/21 09:09:26;;;;;;;4.30;3.13;;;;;;;5.00;100.00;95269.53;5093264;28;20492;-53
2022/01/21 09:12:00;;;;;;;2.10;1.97;;;;;;;5.41;100.00;95312.28;5094609;28;20436;-54
2022/01/21 09:14:40;;;;;;;2.87;2.77;;;;;;;5.51;100.00;95309.81;5095078;28;20497;-55
2022/01/21 09:17:08;;;;;;;0.40;0.40;;;;;;;3.84;100.00;95096.75;5094522;28;20482;-53
2022/01/21 09:19:37;;;;;;;1.03;1.03;;;;;;;4.92;100.00;95305.88;5094860;28;20424;-53
2022/01/21 09:22:13;;;;;;;0.80;0.80;;;;;;;2.99;100.00;95085.25;5094646;28;20432;-53
2022/01/21 09:24:42;;;;;;;0.30;0.20;;;;;;;4.31;100.00;95293.34;5094545;28;20432;-53
2022/01/21 09:27:18;;;;;;;0.63;0.63;;;;;;;4.34;100.00;95290.28;5095023;28;20432;-54
2022/01/21 09:29:59;;;;;;;0.30;0.30;;;;;;;4.50;100.00;95269.34;5094452;28;21079;-53
2022/01/21 09:32:48;;;;;;;0.30;0.20;;;;;;;4.84;100.00;95283.41;5094293;28;20937;-53
2022/01/21 09:35:20;;;;;;;0.60;0.60;;;;;;;4.73;100.00;95254.56;5093904;28;20452;-53
2022/01/21 09:37:48;;;;;;;0.60;0.60;;;;;;;2.49;100.00;94917.47;5093371;28;20458;-53
2022/01/21 09:41:17;;;;;;;2.77;2.67;;;;;;;2.31;100.00;95163.38;5093772;28;20456;-53
2022/01/21 09:44:25;;;;;;;1.70;1.60;;;;;;;2.67;100.00;95290.69;5094051;28;20451;-53
2022/01/21 09:47:19;;;;;;;0.73;0.70;;;;;;;1.47;100.00;95173.81;5094508;28;20511;-54
2022/01/21 09:49:47;;;;;;;1.50;1.47;;;;;;;2.36;100.00;95302.13;5094162;28;20480;-54
2022/01/21 09:55:17;;;;;;;2.63;2.57;;;;;;;2.47;100.00;95279.69;5093563;28;20436;-55
2022/01/21 09:57:51;;;;;;;0.30;0.30;;;;;;;3.11;100.00;95295.53;5094179;28;20833;-53
2022/01/21 10:00:34;;;;;;;0.30;0.30;;;;;;;2.99;100.00;95265.91;5094354;28;20835;-54
2022/01/21 10:04:14;;;;;;;0.50;0.50;;;;;;;2.85;100.00;95232.28;5094046;28;21003;-54
2022/01/21 10:06:51;;;;;;;1.33;1.23;;;;;;;3.79;100.00;95277.53;5094196;28;20507;-55
2022/01/21 10:09:22;;;;;;;3.50;1.80;;;;;;;4.23;100.00;95278.75;5094226;28;20530;-54
2022/01/21 10:11:52;;;;;;;5.20;1.07;;;;;;;4.07;100.00;95276.84;5093751;28;20433;-54
2022/01/21 10:14:29;;;;;;;0.30;0.20;;;;;;;4.34;100.00;95250.91;5093757;28;20424;-53
2022/01/21 10:17:01;;;;;;;2.07;0.80;;;;;;;4.67;96.16;95282.56;5093620;28;20455;-55
2022/01/21 10:19:31;;;;;;;1.53;1.53;;;;;;;4.47;98.69;95274.28;5094018;28;20489;-54
2022/01/21 10:25:28;;;;;;;0.43;0.43;;;;;;;3.19;100.00;95121.56;5093338;28;20443;-54
2022/01/21 10:28:10;;;;;;;1.67;0.40;;;;;;;4.39;100.00;95248.38;5092478;28;20445;-54
2022/01/21 10:30:40;;;;;;;1.70;1.70;;;;;;;3.41;100.00;95070.22;5093161;28;21019;-53
2022/01/21 10:33:45;;;;;;;7.10;1.50;;;;;;;5.02;100.00;95267.47;5057488;28;20439;-53
2022/01/21 10:36:23;;;;;;;0.73;0.73;;;;;;;5.39;98.06;95261.78;5093827;28;20420;-54
2022/01/21 10:39:19;;;;;;;1.47;1.47;;;;;;;5.26;99.18;95265.53;5092930;28;20801;-54
2022/01/21 10:41:55;;;;;;;1.23;1.13;;;;;;;5.29;100.00;95257.13;5093425;28;20468;-54
2022/01/21 10:44:25;;;;;;;0.50;0.50;;;;;;;5.37;100.00;95264.63;5092864;28;20467;-54
2022/01/21 10:47:07;;;;;;;3.07;2.87;;;;;;;5.22;100.00;95258.31;5092864;28;20428;-54
2022/01/21 10:49:39;;;;;;;0.30;0.30;;;;;;;5.32;100.00;95253.25;5093151;28;20468;-54
2022/01/21 10:52:10;;;;;;;0.83;0.83;;;;;;;5.12;100.00;95237.94;5092716;28;20436;-54
2022/01/21 10:54:46;;;;;;;0.30;0.20;;;;;;;5.19;100.00;95250.94;5092537;28;20485;-55
2022/01/21 10:57:22;;;;;;;1.10;1.00;;;;;;;5.14;100.00;95213.03;5092907;28;20432;-54
2022/01/21 11:00:02;;;;;;;1.13;1.13;;;;;;;5.14;100.00;95178.88;5091802;28;20417;-54
2022/01/21 11:02:36;;;;;;;1.73;1.63;;;;;;;5.71;99.84;95239.97;5092344;28;20475;-53
2022/01/21 11:05:12;;;;;;;1.23;1.23;;;;;;;5.43;100.00;95236.63;5092782;28;20431;-54
2022/01/21 11:07:50;;;;;;;8.40;3.30;;;;;;;4.54;100.00;95083.34;5092994;28;20904;-55
2022/01/21 11:10:40;;;;;;;0.30;0.20;;;;;;;5.00;100.00;95166.31;5092575;28;20555;-54
2022/01/21 11:13:29;;;;;;;0.30;0.20;;;;;;;4.62;100.00;95132.84;5092181;28;20464;-54
2022/01/21 11:16:00;;;;;;;4.53;0.37;;;;;;;5.45;100.00;95234.53;5092854;28;20883;-55
2022/01/21 11:18:55;;;;;;;0.30;0.20;;;;;;;5.67;100.00;95219.63;5092245;28;20463;-55
2022/01/21 11:21:39;;;;;;;0.33;0.23;;;;;;;5.54;98.88;95207.59;5092780;28;20424;-56
2022/01/21 11:24:09;;;;;;;0.30;0.20;;;;;;;5.74;99.60;95204.50;5092567;28;20417;-55
2022/01/21 11:26:39;;;;;;;0.40;0.20;;;;;;;5.66;98.27;95223.31;5092577;28;20810;-55
2022/01/21 11:29:08;;;;;;;0.30;0.20;;;;;;;5.61;94.30;95152.25;5092275;28;20463;-55
2022/01/21 11:31:37;;;;;;;0.30;0.27;;;;;;;6.56;90.11;95220.31;5092065;28;20472;-55
2022/01/21 11:34:11;;;;;;;0.30;0.30;;;;;;;6.48;91.57;95226.03;5092686;28;20899;-55
2022/01/21 11:36:41;;;;;;;0.30;0.20;;;;;;;5.71;94.77;95226.81;5092598;28;20428;-55
2022/01/21 11:39:10;;;;;;;0.53;0.53;;;;;;;5.71;96.21;95226.81;5091688;28;20950;-55
2022/01/21 11:41:44;;;;;;;0.30;0.20;;;;;;;4.95;98.49;95216.09;5092391;28;20501;-54
2022/01/21 11:44:14;;;;;;;0.30;0.20;;;;;;;4.88;98.67;95239.88;5091973;28;20447;-54
2022/01/21 11:49:27;;;;;;;0.30;0.20;;;;;;;5.23;98.92;95197.69;5078865;28;20938;-55
2022/01/21 11:52:13;;;;;;;0.30;0.20;;;;;;;5.30;97.46;95200.13;5091876;28;20530;-54
2022/01/21 11:54:42;;;;;;;1.97;0.30;;;;;;;5.03;98.78;95215.72;5091796;28;20916;-54
2022/01/21 11:57:12;;;;;;;0.40;0.40;;;;;;;5.26;96.66;95206.91;5091725;28;20432;-54
2022/01/21 11:59:52;;;;;;;0.40;0.30;;;;;;;5.53;94.24;95219.19;5091749;28;20497;-54
2022/01/21 12:02:25;;;;;;;0.40;0.30;;;;;;;4.85;95.64;95171.28;5091654;28;20468;-54
2022/01/21 12:04:56;;;;;;;0.30;0.20;;;;;;;5.21;97.00;95246.25;5091784;28;20490;-55
2022/01/21 12:07:57;;;;;;;0.50;0.50;;;;;;;4.87;95.79;95190.22;5091854;28;20467;-53
2022/01/21 12:10:36;;;;;;;0.30;0.20;;;;;;;3.78;95.22;95042.66;5091565;28;21160;-55
2022/01/21 12:13:13;;;;;;;0.40;0.20;;;;;;;4.79;96.89;95233.41;5091923;28;20854;-53
2022/01/21 12:15:56;;;;;;;0.30;0.20;;;;;;;4.85;98.49;95234.31;5091677;28;20436;-54
2022/01/21 12:19:16;;;;;;;0.33;0.23;;;;;;;4.80;97.85;95244.72;5091559;28;20529;-53
2022/01/21 12:21:45;;;;;;;0.30;0.30;;;;;;;4.34;100.00;95164.34;5091929;28;20436;-54
2022/01/21 12:24:16;;;;;;;2.10;2.00;;;;;;;4.59;99.17;95222.53;5091543;28;20549;-54
2022/01/21 12:26:59;;;;;;;0.30;0.30;;;;;;;5.48;95.50;95232.25;5091609;28;20551;-54
2022/01/21 12:29:29;;;;;;;1.33;1.23;;;;;;;5.62;90.95;95216.91;5091602;28;20428;-53
2022/01/21 12:32:14;;;;;;;0.30;0.20;;;;;;;5.54;88.33;95219.97;5091343;28;20480;-53
2022/01/21 12:35:17;;;;;;;0.40;0.30;;;;;;;5.25;92.08;95215.81;5091271;28;20509;-54
2022/01/21 12:41:33;;;;;;;0.40;0.33;;;;;;;5.19;90.79;95190.50;5091112;28;20464;-54
2022/01/21 12:44:03;;;;;;;0.30;0.20;;;;;;;5.18;88.36;95239.63;5088289;28;20801;-54
2022/01/21 12:46:35;;;;;;;0.50;0.27;;;;;;;5.02;87.95;95232.50;5090861;28;20468;-55
2022/01/21 12:49:38;;;;;;;0.30;0.30;;;;;;;5.47;85.46;95229.84;5091452;28;20508;-55
2022/01/21 12:52:26;;;;;;;0.30;0.20;;;;;;;4.98;83.93;95216.41;5091519;28;20503;-55
2022/01/21 12:57:44;;;;;;;0.30;0.20;;;;;;;4.50;86.15;95240.47;5091478;28;20477;-54
2022/01/21 13:00:13;;;;;;;0.80;0.80;;;;;;;4.47;87.00;95225.22;5091240;28;20432;-54